sensor_id;sensor_type;location;lat;lon;timestamp;temperature;humidity
32476;DHT22;18929;48.008;10.882;2022-10-31T00:00:17;13.80;99.90
32476;DHT22;18929;48.008;10.882;2022-10-31T00:02:45;13.80;99.90
32476;DHT22;18929;48.008;10.882;2022-10-31T00:05:12;13.70;99.90
32476;DHT22;18929;48.008;10.882;2022-10-31T00:07:40;13.80;99.90
32476;DHT22;18929;48.008;10.882;2022-10-31T00:10:08;13.80;99.90
32476;DHT22;18929;48.008;10.882;2022-10-31T00:12:35;13.90;99.90
32476;DHT22;18929;48.008;10.882;2022-10-31T00:15:02;13.80;99.90
32476;DHT22;18929;48.008;10.882;2022-10-31T00:17:30;13.80;99.90
32476;DHT22;18929;48.008;10.882;2022-10-31T00:19:57;13.80;99.90
32476;DHT22;18929;48.008;10.882;2022-10-31T00:22:24;13.70;99.90
32476;DHT22;18929;48.008;10.882;2022-10-31T00:24:52;13.60;99.90
32476;DHT22;18929;48.008;10.882;2022-10-31T00:27:19;13.50;99.90
32476;DHT22;18929;48.008;10.882;2022-10-31T00:29:46;13.60;99.90
32476;DHT22;18929;48.008;10.882;2022-10-31T00:32:13;13.50;99.90
32476;DHT22;18929;48.008;10.882;2022-10-31T00:34:40;13.70;99.90
32476;DHT22;18929;48.008;10.882;2022-10-31T00:37:07;13.60;99.90
32476;DHT22;18929;48.008;10.882;2022-10-31T00:39:34;13.50;99.90
32476;DHT22;18929;48.008;10.882;2022-10-31T00:42:03;13.10;99.90
32476;DHT22;18929;48.008;10.882;2022-10-31T00:44:30;13.50;99.90
32476;DHT22;18929;48.008;10.882;2022-10-31T00:46:57;13.70;99.90
32476;DHT22;18929;48.008;10.882;2022-10-31T00:49:24;13.50;99.90
32476;DHT22;18929;48.008;10.882;2022-10-31T00:51:51;12.90;99.90
32476;DHT22;18929;48.008;10.882;2022-10-31T00:54:18;13.00;99.90
32476;DHT22;18929;48.008;10.882;2022-10-31T00:56:45;13.20;99.90
32476;DHT22;18929;48.008;10.882;2022-10-31T00:59:14;13.50;99.90
32476;DHT22;18929;48.008;10.882;2022-10-31T01:01:41;13.60;99.90
32476;DHT22;18929;48.008;10.882;2022-10-31T01:04:08;13.50;99.90
32476;DHT22;18929;48.008;10.882;2022-10-31T01:06:35;13.60;99.90
32476;DHT22;18929;48.008;10.882;2022-10-31T01:09:02;13.50;99.90
32476;DHT22;18929;48.008;10.882;2022-10-31T01:11:31;13.40;99.90
32476;DHT22;18929;48.008;10.882;2022-10-31T01:14:03;13.40;99.90
32476;DHT22;18929;48.008;10.882;2022-10-31T01:16:32;13.00;99.90
32476;DHT22;18929;48.008;10.882;2022-10-31T01:18:58;13.30;99.90
32476;DHT22;18929;48.008;10.882;2022-10-31T01:21:27;13.40;99.90
32476;DHT22;18929;48.008;10.882;2022-10-31T01:23:55;13.40;99.90
32476;DHT22;18929;48.008;10.882;2022-10-31T01:26:24;13.50;99.90
32476;DHT22;18929;48.008;10.882;2022-10-31T01:28:53;13.40;99.90
32476;DHT22;18929;48.008;10.882;2022-10-31T01:31:22;13.30;99.90
32476;DHT22;18929;48.008;10.882;2022-10-31T01:33:51;13.30;99.90
32476;DHT22;18929;48.008;10.882;2022-10-31T01:36:20;13.30;99.90
32476;DHT22;18929;48.008;10.882;2022-10-31T01:38:49;13.30;99.90
32476;DHT22;18929;48.008;10.882;2022-10-31T01:41:17;13.30;99.90
32476;DHT22;18929;48.008;10.882;2022-10-31T01:43:49;13.20;99.90
32476;DHT22;18929;48.008;10.882;2022-10-31T01:46:19;13.30;99.90
32476;DHT22;18929;48.008;10.882;2022-10-31T01:48:48;13.20;99.90
32476;DHT22;18929;48.008;10.882;2022-10-31T01:51:17;13.20;99.90
32476;DHT22;18929;48.008;10.882;2022-10-31T01:53:45;13.10;99.90
32476;DHT22;18929;48.008;10.882;2022-10-31T01:56:14;13.20;99.90
32476;DHT22;18929;48.008;10.882;2022-10-31T01:58:42;13.10;99.90
32476;DHT22;18929;48.008;10.882;2022-10-31T02:01:10;13.10;99.90
32476;DHT22;18929;48.008;10.882;2022-10-31T02:03:39;13.00;99.90
32476;DHT22;18929;48.008;10.882;2022-10-31T02:06:10;12.90;99.90
32476;DHT22;18929;48.008;10.882;2022-10-31T02:08:41;13.10;99.90
32476;DHT22;18929;48.008;10.882;2022-10-31T02:11:09;13.10;99.90
32476;DHT22;18929;48.008;10.882;2022-10-31T02:13:37;13.00;99.90
32476;DHT22;18929;48.008;10.882;2022-10-31T02:16:04;13.00;99.90
32476;DHT22;18929;48.008;10.882;2022-10-31T02:18:31;13.00;99.90
32476;DHT22;18929;48.008;10.882;2022-10-31T02:21:05;13.10;99.90
32476;DHT22;18929;48.008;10.882;2022-10-31T02:24:08;12.90;99.90
32476;DHT22;18929;48.008;10.882;2022-10-31T02:26:58;12.90;99.90
32476;DHT22;18929;48.008;10.882;2022-10-31T02:29:45;12.90;99.90
32476;DHT22;18929;48.008;10.882;2022-10-31T02:32:21;12.90;99.90
32476;DHT22;18929;48.008;10.882;2022-10-31T02:34:57;12.90;99.90
32476;DHT22;18929;48.008;10.882;2022-10-31T02:37:29;12.90;99.90
32476;DHT22;18929;48.008;10.882;2022-10-31T02:40:02;12.90;99.90
32476;DHT22;18929;48.008;10.882;2022-10-31T02:42:34;12.80;99.90
32476;DHT22;18929;48.008;10.882;2022-10-31T02:45:09;12.80;99.90
32476;DHT22;18929;48.008;10.882;2022-10-31T02:47:40;12.80;99.90
32476;DHT22;18929;48.008;10.882;2022-10-31T02:50:13;12.80;99.90
32476;DHT22;18929;48.008;10.882;2022-10-31T02:52:40;12.80;99.90
32476;DHT22;18929;48.008;10.882;2022-10-31T02:55:39;12.80;99.90
32476;DHT22;18929;48.008;10.882;2022-10-31T02:58:02;12.80;99.90
32476;DHT22;18929;48.008;10.882;2022-10-31T03:00:35;12.70;99.90
32476;DHT22;18929;48.008;10.882;2022-10-31T03:03:10;12.70;99.90
32476;DHT22;18929;48.008;10.882;2022-10-31T03:05:48;12.70;99.90
32476;DHT22;18929;48.008;10.882;2022-10-31T03:08:24;12.70;99.90
32476;DHT22;18929;48.008;10.882;2022-10-31T03:10:56;12.70;99.90
32476;DHT22;18929;48.008;10.882;2022-10-31T03:13:30;12.60;99.90
32476;DHT22;18929;48.008;10.882;2022-10-31T03:16:06;12.60;99.90
32476;DHT22;18929;48.008;10.882;2022-10-31T03:18:40;12.40;99.90
32476;DHT22;18929;48.008;10.882;2022-10-31T03:21:11;12.60;99.90
32476;DHT22;18929;48.008;10.882;2022-10-31T03:23:39;12.60;99.90
32476;DHT22;18929;48.008;10.882;2022-10-31T03:26:08;12.70;99.90
32476;DHT22;18929;48.008;10.882;2022-10-31T03:28:37;12.60;99.90
32476;DHT22;18929;48.008;10.882;2022-10-31T03:31:05;12.50;99.90
32476;DHT22;18929;48.008;10.882;2022-10-31T03:33:36;12.60;99.90
32476;DHT22;18929;48.008;10.882;2022-10-31T03:36:06;12.50;99.90
32476;DHT22;18929;48.008;10.882;2022-10-31T03:38:35;12.50;99.90
32476;DHT22;18929;48.008;10.882;2022-10-31T03:41:05;12.40;99.90
32476;DHT22;18929;48.008;10.882;2022-10-31T03:43:48;12.50;99.90
32476;DHT22;18929;48.008;10.882;2022-10-31T03:46:18;11.80;99.90
32476;DHT22;18929;48.008;10.882;2022-10-31T03:48:46;12.20;99.90
32476;DHT22;18929;48.008;10.882;2022-10-31T03:51:20;12.30;99.90
32476;DHT22;18929;48.008;10.882;2022-10-31T03:53:54;12.30;99.90
32476;DHT22;18929;48.008;10.882;2022-10-31T03:56:28;12.30;99.90
32476;DHT22;18929;48.008;10.882;2022-10-31T03:59:00;12.30;99.90
32476;DHT22;18929;48.008;10.882;2022-10-31T04:01:28;12.30;99.90
32476;DHT22;18929;48.008;10.882;2022-10-31T04:03:58;12.30;99.90
32476;DHT22;18929;48.008;10.882;2022-10-31T04:06:26;12.30;99.90
32476;DHT22;18929;48.008;10.882;2022-10-31T04:08:56;12.20;99.90
32476;DHT22;18929;48.008;10.882;2022-10-31T04:11:27;12.10;99.90
32476;DHT22;18929;48.008;10.882;2022-10-31T04:13:55;12.10;99.90
32476;DHT22;18929;48.008;10.882;2022-10-31T04:16:25;12.20;99.90
32476;DHT22;18929;48.008;10.882;2022-10-31T04:18:52;12.20;99.90
32476;DHT22;18929;48.008;10.882;2022-10-31T04:21:26;12.20;99.90
32476;DHT22;18929;48.008;10.882;2022-10-31T04:23:55;12.20;99.90
32476;DHT22;18929;48.008;10.882;2022-10-31T04:26:22;12.20;99.90
32476;DHT22;18929;48.008;10.882;2022-10-31T04:28:50;12.20;99.90
32476;DHT22;18929;48.008;10.882;2022-10-31T04:31:17;12.20;99.90
32476;DHT22;18929;48.008;10.882;2022-10-31T04:33:44;12.00;99.90
32476;DHT22;18929;48.008;10.882;2022-10-31T04:36:12;11.70;99.90
32476;DHT22;18929;48.008;10.882;2022-10-31T04:38:41;12.10;99.90
32476;DHT22;18929;48.008;10.882;2022-10-31T04:41:07;12.10;99.90
32476;DHT22;18929;48.008;10.882;2022-10-31T04:43:34;12.20;99.90
32476;DHT22;18929;48.008;10.882;2022-10-31T04:46:01;12.20;99.90
32476;DHT22;18929;48.008;10.882;2022-10-31T04:48:29;12.10;99.90
32476;DHT22;18929;48.008;10.882;2022-10-31T04:50:59;12.00;99.90
32476;DHT22;18929;48.008;10.882;2022-10-31T04:53:26;12.00;99.90
32476;DHT22;18929;48.008;10.882;2022-10-31T04:55:57;12.00;99.90
32476;DHT22;18929;48.008;10.882;2022-10-31T04:58:25;12.00;99.90
32476;DHT22;18929;48.008;10.882;2022-10-31T05:00:52;12.10;99.90
32476;DHT22;18929;48.008;10.882;2022-10-31T05:03:19;12.10;99.90
32476;DHT22;18929;48.008;10.882;2022-10-31T05:05:47;12.00;99.90
32476;DHT22;18929;48.008;10.882;2022-10-31T05:08:30;11.90;99.90
32476;DHT22;18929;48.008;10.882;2022-10-31T05:11:01;12.00;99.90
32476;DHT22;18929;48.008;10.882;2022-10-31T05:13:29;11.90;99.90
32476;DHT22;18929;48.008;10.882;2022-10-31T05:15:56;11.90;99.90
32476;DHT22;18929;48.008;10.882;2022-10-31T05:18:23;11.90;99.90
32476;DHT22;18929;48.008;10.882;2022-10-31T05:20:51;11.90;99.90
32476;DHT22;18929;48.008;10.882;2022-10-31T05:23:17;11.20;99.90
32476;DHT22;18929;48.008;10.882;2022-10-31T05:25:44;10.80;99.90
32476;DHT22;18929;48.008;10.882;2022-10-31T05:28:13;11.40;99.90
32476;DHT22;18929;48.008;10.882;2022-10-31T05:30:40;11.50;99.90
32476;DHT22;18929;48.008;10.882;2022-10-31T05:33:07;11.70;99.90
32476;DHT22;18929;48.008;10.882;2022-10-31T05:35:34;11.70;99.90
32476;DHT22;18929;48.008;10.882;2022-10-31T05:38:01;11.80;99.90
32476;DHT22;18929;48.008;10.882;2022-10-31T05:40:28;11.80;99.90
32476;DHT22;18929;48.008;10.882;2022-10-31T05:42:56;11.80;99.90
32476;DHT22;18929;48.008;10.882;2022-10-31T05:45:25;11.80;99.90
32476;DHT22;18929;48.008;10.882;2022-10-31T05:47:53;11.90;99.90
32476;DHT22;18929;48.008;10.882;2022-10-31T05:50:20;11.90;99.90
32476;DHT22;18929;48.008;10.882;2022-10-31T05:52:54;11.80;99.90
32476;DHT22;18929;48.008;10.882;2022-10-31T05:55:21;11.80;99.90
32476;DHT22;18929;48.008;10.882;2022-10-31T05:57:48;11.80;99.90
32476;DHT22;18929;48.008;10.882;2022-10-31T06:00:26;11.70;99.90
32476;DHT22;18929;48.008;10.882;2022-10-31T06:02:58;11.70;99.90
32476;DHT22;18929;48.008;10.882;2022-10-31T06:05:25;11.70;99.90
32476;DHT22;18929;48.008;10.882;2022-10-31T06:07:52;11.60;99.90
32476;DHT22;18929;48.008;10.882;2022-10-31T06:10:19;11.60;99.90
32476;DHT22;18929;48.008;10.882;2022-10-31T06:12:47;11.70;99.90
32476;DHT22;18929;48.008;10.882;2022-10-31T06:15:14;11.60;99.90
32476;DHT22;18929;48.008;10.882;2022-10-31T06:17:43;11.60;99.90
32476;DHT22;18929;48.008;10.882;2022-10-31T06:20:10;11.80;99.90
32476;DHT22;18929;48.008;10.882;2022-10-31T06:22:38;11.70;99.90
32476;DHT22;18929;48.008;10.882;2022-10-31T06:25:06;11.60;99.90
32476;DHT22;18929;48.008;10.882;2022-10-31T06:27:34;11.60;99.90
32476;DHT22;18929;48.008;10.882;2022-10-31T06:30:01;11.60;99.90
32476;DHT22;18929;48.008;10.882;2022-10-31T06:32:27;11.60;99.90
32476;DHT22;18929;48.008;10.882;2022-10-31T06:34:56;11.60;99.90
32476;DHT22;18929;48.008;10.882;2022-10-31T06:37:23;11.60;99.90
32476;DHT22;18929;48.008;10.882;2022-10-31T06:39:50;11.60;99.90
32476;DHT22;18929;48.008;10.882;2022-10-31T06:42:17;11.60;99.90
32476;DHT22;18929;48.008;10.882;2022-10-31T06:44:44;11.60;99.90
32476;DHT22;18929;48.008;10.882;2022-10-31T06:47:11;11.70;99.90
32476;DHT22;18929;48.008;10.882;2022-10-31T06:49:38;11.50;99.90
32476;DHT22;18929;48.008;10.882;2022-10-31T06:52:06;11.50;99.90
32476;DHT22;18929;48.008;10.882;2022-10-31T06:54:33;11.70;99.90
32476;DHT22;18929;48.008;10.882;2022-10-31T06:57:00;11.60;99.90
32476;DHT22;18929;48.008;10.882;2022-10-31T06:59:27;11.70;99.90
32476;DHT22;18929;48.008;10.882;2022-10-31T07:01:54;11.70;99.90
32476;DHT22;18929;48.008;10.882;2022-10-31T07:04:21;11.60;99.90
32476;DHT22;18929;48.008;10.882;2022-10-31T07:06:50;11.70;99.90
32476;DHT22;18929;48.008;10.882;2022-10-31T07:09:19;11.60;99.90
32476;DHT22;18929;48.008;10.882;2022-10-31T07:11:46;11.60;99.90
32476;DHT22;18929;48.008;10.882;2022-10-31T07:14:13;11.30;99.90
32476;DHT22;18929;48.008;10.882;2022-10-31T07:16:40;11.00;99.90
32476;DHT22;18929;48.008;10.882;2022-10-31T07:19:07;11.00;99.90
32476;DHT22;18929;48.008;10.882;2022-10-31T07:21:33;11.40;99.90
32476;DHT22;18929;48.008;10.882;2022-10-31T07:24:00;11.40;99.90
32476;DHT22;18929;48.008;10.882;2022-10-31T07:26:29;11.50;99.90
32476;DHT22;18929;48.008;10.882;2022-10-31T07:28:56;11.60;99.90
32476;DHT22;18929;48.008;10.882;2022-10-31T07:31:24;11.20;99.90
32476;DHT22;18929;48.008;10.882;2022-10-31T07:33:51;11.20;99.90
32476;DHT22;18929;48.008;10.882;2022-10-31T07:36:18;11.30;99.90
32476;DHT22;18929;48.008;10.882;2022-10-31T07:38:45;11.60;99.90
32476;DHT22;18929;48.008;10.882;2022-10-31T07:41:12;11.60;99.90
32476;DHT22;18929;48.008;10.882;2022-10-31T07:43:40;11.60;99.90
32476;DHT22;18929;48.008;10.882;2022-10-31T07:46:07;11.80;99.90
32476;DHT22;18929;48.008;10.882;2022-10-31T07:48:34;11.90;99.90
32476;DHT22;18929;48.008;10.882;2022-10-31T07:51:01;11.90;99.90
32476;DHT22;18929;48.008;10.882;2022-10-31T07:53:28;11.90;99.90
32476;DHT22;18929;48.008;10.882;2022-10-31T07:55:55;11.90;99.90
32476;DHT22;18929;48.008;10.882;2022-10-31T07:58:22;11.70;99.90
32476;DHT22;18929;48.008;10.882;2022-10-31T08:00:51;11.70;99.90
32476;DHT22;18929;48.008;10.882;2022-10-31T08:03:19;11.40;99.90
32476;DHT22;18929;48.008;10.882;2022-10-31T08:05:46;11.40;99.90
32476;DHT22;18929;48.008;10.882;2022-10-31T08:08:14;11.60;99.90
32476;DHT22;18929;48.008;10.882;2022-10-31T08:10:44;11.80;99.90
32476;DHT22;18929;48.008;10.882;2022-10-31T08:13:13;11.90;99.90
32476;DHT22;18929;48.008;10.882;2022-10-31T08:15:41;12.00;99.90
32476;DHT22;18929;48.008;10.882;2022-10-31T08:18:15;12.20;99.90
32476;DHT22;18929;48.008;10.882;2022-10-31T08:20:53;12.30;99.90
32476;DHT22;18929;48.008;10.882;2022-10-31T08:23:20;12.30;99.90
32476;DHT22;18929;48.008;10.882;2022-10-31T08:25:47;12.50;99.90
32476;DHT22;18929;48.008;10.882;2022-10-31T08:28:14;12.60;99.90
32476;DHT22;18929;48.008;10.882;2022-10-31T08:30:42;12.60;99.90
32476;DHT22;18929;48.008;10.882;2022-10-31T08:33:10;12.60;99.90
32476;DHT22;18929;48.008;10.882;2022-10-31T08:35:38;12.80;99.90
32476;DHT22;18929;48.008;10.882;2022-10-31T08:38:06;12.90;99.90
32476;DHT22;18929;48.008;10.882;2022-10-31T08:40:34;12.80;99.90
32476;DHT22;18929;48.008;10.882;2022-10-31T08:43:04;12.80;99.90
32476;DHT22;18929;48.008;10.882;2022-10-31T08:45:32;12.90;99.90
32476;DHT22;18929;48.008;10.882;2022-10-31T08:48:02;13.00;99.90
32476;DHT22;18929;48.008;10.882;2022-10-31T08:50:31;13.00;99.90
32476;DHT22;18929;48.008;10.882;2022-10-31T08:53:03;13.10;99.90
32476;DHT22;18929;48.008;10.882;2022-10-31T08:55:30;13.10;99.90
32476;DHT22;18929;48.008;10.882;2022-10-31T08:57:58;13.20;99.90
32476;DHT22;18929;48.008;10.882;2022-10-31T09:00:25;13.30;99.90
32476;DHT22;18929;48.008;10.882;2022-10-31T09:02:56;13.40;99.90
32476;DHT22;18929;48.008;10.882;2022-10-31T09:05:23;13.60;99.90
32476;DHT22;18929;48.008;10.882;2022-10-31T09:07:50;13.70;99.90
32476;DHT22;18929;48.008;10.882;2022-10-31T09:10:19;13.70;99.90
32476;DHT22;18929;48.008;10.882;2022-10-31T09:12:46;13.90;99.90
32476;DHT22;18929;48.008;10.882;2022-10-31T09:15:13;13.90;99.90
32476;DHT22;18929;48.008;10.882;2022-10-31T09:17:46;14.30;99.90
32476;DHT22;18929;48.008;10.882;2022-10-31T09:20:13;14.60;99.90
32476;DHT22;18929;48.008;10.882;2022-10-31T09:22:40;14.80;99.90
32476;DHT22;18929;48.008;10.882;2022-10-31T09:25:08;14.90;99.90
32476;DHT22;18929;48.008;10.882;2022-10-31T09:27:36;14.90;99.90
32476;DHT22;18929;48.008;10.882;2022-10-31T09:30:04;15.00;99.90
32476;DHT22;18929;48.008;10.882;2022-10-31T09:32:31;15.10;99.90
32476;DHT22;18929;48.008;10.882;2022-10-31T09:34:58;15.20;99.90
32476;DHT22;18929;48.008;10.882;2022-10-31T09:37:25;15.30;99.90
32476;DHT22;18929;48.008;10.882;2022-10-31T09:39:52;15.20;99.90
32476;DHT22;18929;48.008;10.882;2022-10-31T09:42:47;15.50;99.90
32476;DHT22;18929;48.008;10.882;2022-10-31T09:45:20;15.70;99.90
32476;DHT22;18929;48.008;10.882;2022-10-31T09:47:58;15.90;99.90
32476;DHT22;18929;48.008;10.882;2022-10-31T09:50:32;15.70;99.90
32476;DHT22;18929;48.008;10.882;2022-10-31T09:53:10;15.50;99.90
32476;DHT22;18929;48.008;10.882;2022-10-31T09:55:40;15.60;99.90
32476;DHT22;18929;48.008;10.882;2022-10-31T09:58:15;15.80;99.90
32476;DHT22;18929;48.008;10.882;2022-10-31T10:00:44;15.60;99.90
32476;DHT22;18929;48.008;10.882;2022-10-31T10:03:19;15.90;99.90
32476;DHT22;18929;48.008;10.882;2022-10-31T10:05:53;15.70;99.90
32476;DHT22;18929;48.008;10.882;2022-10-31T10:08:25;16.00;99.90
32476;DHT22;18929;48.008;10.882;2022-10-31T10:10:58;16.10;99.90
32476;DHT22;18929;48.008;10.882;2022-10-31T10:13:38;16.00;99.90
32476;DHT22;18929;48.008;10.882;2022-10-31T10:16:17;15.90;99.90
32476;DHT22;18929;48.008;10.882;2022-10-31T10:18:58;16.00;99.90
32476;DHT22;18929;48.008;10.882;2022-10-31T10:21:34;16.00;99.90
32476;DHT22;18929;48.008;10.882;2022-10-31T10:24:17;16.20;99.90
32476;DHT22;18929;48.008;10.882;2022-10-31T10:26:51;16.10;99.90
32476;DHT22;18929;48.008;10.882;2022-10-31T10:29:33;16.10;99.90
32476;DHT22;18929;48.008;10.882;2022-10-31T10:32:04;16.40;99.90
32476;DHT22;18929;48.008;10.882;2022-10-31T10:34:35;16.60;99.90
32476;DHT22;18929;48.008;10.882;2022-10-31T10:37:05;16.80;99.90
32476;DHT22;18929;48.008;10.882;2022-10-31T10:39:39;16.60;99.90
32476;DHT22;18929;48.008;10.882;2022-10-31T10:42:11;16.60;99.90
32476;DHT22;18929;48.008;10.882;2022-10-31T10:44:58;17.10;99.90
32476;DHT22;18929;48.008;10.882;2022-10-31T10:47:44;17.00;99.90
32476;DHT22;18929;48.008;10.882;2022-10-31T10:50:17;17.30;99.90
32476;DHT22;18929;48.008;10.882;2022-10-31T10:52:50;17.20;99.90
32476;DHT22;18929;48.008;10.882;2022-10-31T10:55:30;17.30;99.90
32476;DHT22;18929;48.008;10.882;2022-10-31T10:58:01;17.50;99.90
32476;DHT22;18929;48.008;10.882;2022-10-31T11:00:34;17.60;99.90
32476;DHT22;18929;48.008;10.882;2022-10-31T11:03:02;17.70;99.90
32476;DHT22;18929;48.008;10.882;2022-10-31T11:05:36;17.70;99.90
32476;DHT22;18929;48.008;10.882;2022-10-31T11:08:05;17.60;99.90
32476;DHT22;18929;48.008;10.882;2022-10-31T11:10:33;17.60;99.90
32476;DHT22;18929;48.008;10.882;2022-10-31T11:15:54;17.70;99.90
32476;DHT22;18929;48.008;10.882;2022-10-31T11:18:25;17.90;99.90
32476;DHT22;18929;48.008;10.882;2022-10-31T11:20:54;17.70;99.90
32476;DHT22;18929;48.008;10.882;2022-10-31T11:23:22;17.40;99.90
32476;DHT22;18929;48.008;10.882;2022-10-31T11:25:55;17.20;99.90
32476;DHT22;18929;48.008;10.882;2022-10-31T11:28:23;17.50;99.90
32476;DHT22;18929;48.008;10.882;2022-10-31T11:30:53;17.70;99.90
32476;DHT22;18929;48.008;10.882;2022-10-31T11:33:29;17.00;99.90
32476;DHT22;18929;48.008;10.882;2022-10-31T11:35:58;17.30;99.90
32476;DHT22;18929;48.008;10.882;2022-10-31T11:38:32;17.00;99.90
32476;DHT22;18929;48.008;10.882;2022-10-31T11:41:08;17.40;99.90
32476;DHT22;18929;48.008;10.882;2022-10-31T11:43:36;17.60;99.90
32476;DHT22;18929;48.008;10.882;2022-10-31T11:46:10;17.60;99.90
32476;DHT22;18929;48.008;10.882;2022-10-31T11:48:38;16.50;99.90
32476;DHT22;18929;48.008;10.882;2022-10-31T11:51:05;17.40;99.90
32476;DHT22;18929;48.008;10.882;2022-10-31T11:53:33;17.80;99.90
32476;DHT22;18929;48.008;10.882;2022-10-31T11:56:10;18.00;99.90
32476;DHT22;18929;48.008;10.882;2022-10-31T11:58:39;18.20;99.90
32476;DHT22;18929;48.008;10.882;2022-10-31T12:01:23;18.10;99.90
32476;DHT22;18929;48.008;10.882;2022-10-31T12:03:56;17.60;99.90
32476;DHT22;18929;48.008;10.882;2022-10-31T12:06:30;17.80;99.90
32476;DHT22;18929;48.008;10.882;2022-10-31T12:08:58;18.40;99.90
32476;DHT22;18929;48.008;10.882;2022-10-31T12:11:42;18.40;99.90
32476;DHT22;18929;48.008;10.882;2022-10-31T12:14:22;18.60;99.90
32476;DHT22;18929;48.008;10.882;2022-10-31T12:16:57;18.40;99.90
32476;DHT22;18929;48.008;10.882;2022-10-31T12:19:33;18.90;99.90
32476;DHT22;18929;48.008;10.882;2022-10-31T12:22:11;18.70;99.90
32476;DHT22;18929;48.008;10.882;2022-10-31T12:24:53;18.80;99.90
32476;DHT22;18929;48.008;10.882;2022-10-31T12:27:32;18.90;99.90
32476;DHT22;18929;48.008;10.882;2022-10-31T12:30:11;18.80;99.90
32476;DHT22;18929;48.008;10.882;2022-10-31T12:32:56;18.70;99.90
32476;DHT22;18929;48.008;10.882;2022-10-31T12:35:32;17.40;99.90
32476;DHT22;18929;48.008;10.882;2022-10-31T12:38:14;17.10;99.90
32476;DHT22;18929;48.008;10.882;2022-10-31T12:40:54;17.00;99.90
32476;DHT22;18929;48.008;10.882;2022-10-31T12:43:34;18.10;99.90
32476;DHT22;18929;48.008;10.882;2022-10-31T12:46:04;18.60;99.90
32476;DHT22;18929;48.008;10.882;2022-10-31T12:49:00;18.70;99.90
32476;DHT22;18929;48.008;10.882;2022-10-31T12:51:39;18.70;99.90
32476;DHT22;18929;48.008;10.882;2022-10-31T12:54:22;18.90;99.90
32476;DHT22;18929;48.008;10.882;2022-10-31T12:56:56;18.80;99.90
32476;DHT22;18929;48.008;10.882;2022-10-31T12:59:28;18.70;99.90
32476;DHT22;18929;48.008;10.882;2022-10-31T13:02:00;18.70;99.90
32476;DHT22;18929;48.008;10.882;2022-10-31T13:04:36;18.70;99.90
32476;DHT22;18929;48.008;10.882;2022-10-31T13:07:12;18.60;99.90
32476;DHT22;18929;48.008;10.882;2022-10-31T13:09:46;18.70;99.90
32476;DHT22;18929;48.008;10.882;2022-10-31T13:12:18;18.70;99.90
32476;DHT22;18929;48.008;10.882;2022-10-31T13:14:48;18.60;99.90
32476;DHT22;18929;48.008;10.882;2022-10-31T13:17:22;18.90;99.90
32476;DHT22;18929;48.008;10.882;2022-10-31T13:19:55;19.20;99.90
32476;DHT22;18929;48.008;10.882;2022-10-31T13:22:27;19.20;99.90
32476;DHT22;18929;48.008;10.882;2022-10-31T13:24:59;19.10;99.90
32476;DHT22;18929;48.008;10.882;2022-10-31T13:27:37;19.20;99.90
32476;DHT22;18929;48.008;10.882;2022-10-31T13:30:14;19.30;99.90
32476;DHT22;18929;48.008;10.882;2022-10-31T13:32:47;18.90;99.90
32476;DHT22;18929;48.008;10.882;2022-10-31T13:35:22;19.00;99.90
32476;DHT22;18929;48.008;10.882;2022-10-31T13:38:02;19.00;99.90
32476;DHT22;18929;48.008;10.882;2022-10-31T13:40:38;19.20;99.90
32476;DHT22;18929;48.008;10.882;2022-10-31T13:43:16;19.30;99.90
32476;DHT22;18929;48.008;10.882;2022-10-31T13:45:51;19.30;99.90
32476;DHT22;18929;48.008;10.882;2022-10-31T13:48:34;19.30;99.90
32476;DHT22;18929;48.008;10.882;2022-10-31T13:51:03;19.20;99.90
32476;DHT22;18929;48.008;10.882;2022-10-31T13:53:45;19.20;99.90
32476;DHT22;18929;48.008;10.882;2022-10-31T13:56:25;19.10;99.90
32476;DHT22;18929;48.008;10.882;2022-10-31T13:59:16;19.00;99.90
32476;DHT22;18929;48.008;10.882;2022-10-31T14:01:49;18.90;99.90
32476;DHT22;18929;48.008;10.882;2022-10-31T14:04:18;19.00;99.90
32476;DHT22;18929;48.008;10.882;2022-10-31T14:06:55;19.00;99.90
32476;DHT22;18929;48.008;10.882;2022-10-31T14:09:30;19.20;99.90
32476;DHT22;18929;48.008;10.882;2022-10-31T14:12:02;19.10;99.90
32476;DHT22;18929;48.008;10.882;2022-10-31T14:14:43;19.20;99.90
32476;DHT22;18929;48.008;10.882;2022-10-31T14:17:23;19.10;99.90
32476;DHT22;18929;48.008;10.882;2022-10-31T14:20:00;19.10;99.90
32476;DHT22;18929;48.008;10.882;2022-10-31T14:22:33;19.20;99.90
32476;DHT22;18929;48.008;10.882;2022-10-31T14:27:46;19.30;99.90
32476;DHT22;18929;48.008;10.882;2022-10-31T14:30:19;19.30;99.90
32476;DHT22;18929;48.008;10.882;2022-10-31T14:33:16;19.40;99.90
32476;DHT22;18929;48.008;10.882;2022-10-31T14:35:52;19.10;99.90
32476;DHT22;18929;48.008;10.882;2022-10-31T14:38:40;19.00;99.90
32476;DHT22;18929;48.008;10.882;2022-10-31T14:44:38;19.00;99.90
32476;DHT22;18929;48.008;10.882;2022-10-31T14:47:16;18.60;99.90
32476;DHT22;18929;48.008;10.882;2022-10-31T14:52:49;18.90;99.90
32476;DHT22;18929;48.008;10.882;2022-10-31T14:55:18;19.00;99.90
32476;DHT22;18929;48.008;10.882;2022-10-31T14:57:49;18.60;99.90
32476;DHT22;18929;48.008;10.882;2022-10-31T15:00:19;18.80;99.90
32476;DHT22;18929;48.008;10.882;2022-10-31T15:02:56;19.00;99.90
32476;DHT22;18929;48.008;10.882;2022-10-31T15:05:32;19.00;99.90
32476;DHT22;18929;48.008;10.882;2022-10-31T15:08:00;18.90;99.90
32476;DHT22;18929;48.008;10.882;2022-10-31T15:10:30;18.70;99.90
32476;DHT22;18929;48.008;10.882;2022-10-31T15:13:09;18.90;99.90
32476;DHT22;18929;48.008;10.882;2022-10-31T15:15:37;19.00;99.90
32476;DHT22;18929;48.008;10.882;2022-10-31T15:18:05;19.20;99.90
32476;DHT22;18929;48.008;10.882;2022-10-31T15:20:37;19.00;99.90
32476;DHT22;18929;48.008;10.882;2022-10-31T15:23:11;18.90;99.90
32476;DHT22;18929;48.008;10.882;2022-10-31T15:25:41;18.90;99.90
32476;DHT22;18929;48.008;10.882;2022-10-31T15:28:19;19.00;99.90
32476;DHT22;18929;48.008;10.882;2022-10-31T15:30:52;19.00;99.90
32476;DHT22;18929;48.008;10.882;2022-10-31T15:33:21;19.00;99.90
32476;DHT22;18929;48.008;10.882;2022-10-31T15:35:56;19.10;99.90
32476;DHT22;18929;48.008;10.882;2022-10-31T15:38:24;18.90;99.90
32476;DHT22;18929;48.008;10.882;2022-10-31T15:40:56;18.80;99.90
32476;DHT22;18929;48.008;10.882;2022-10-31T15:43:25;18.70;99.90
32476;DHT22;18929;48.008;10.882;2022-10-31T15:45:56;18.60;99.90
32476;DHT22;18929;48.008;10.882;2022-10-31T15:48:24;18.40;99.90
32476;DHT22;18929;48.008;10.882;2022-10-31T15:50:54;18.30;99.90